sensor_id;sensor_type;location;lat;lon;timestamp;P1;durP1;ratioP1;P2;durP2;ratioP2
13641;SDS011;6894;52.196;9.904;2024-03-07T00:01:39;18.93;;;15.60;;
13641;SDS011;6894;52.196;9.904;2024-03-07T00:04:06;18.30;;;14.83;;
13641;SDS011;6894;52.196;9.904;2024-03-07T00:06:34;18.90;;;14.83;;
13641;SDS011;6894;52.196;9.904;2024-03-07T00:09:01;17.63;;;15.73;;
13641;SDS011;6894;52.196;9.904;2024-03-07T00:11:28;18.93;;;14.30;;
13641;SDS011;6894;52.196;9.904;2024-03-07T00:13:55;18.63;;;14.43;;
13641;SDS011;6894;52.196;9.904;2024-03-07T00:16:22;17.97;;;14.80;;
13641;SDS011;6894;52.196;9.904;2024-03-07T00:18:48;23.13;;;15.90;;
13641;SDS011;6894;52.196;9.904;2024-03-07T00:21:15;18.60;;;14.97;;
13641;SDS011;6894;52.196;9.904;2024-03-07T00:23:43;17.40;;;14.60;;
13641;SDS011;6894;52.196;9.904;2024-03-07T00:26:10;18.37;;;15.33;;
13641;SDS011;6894;52.196;9.904;2024-03-07T00:28:37;19.00;;;15.03;;
13641;SDS011;6894;52.196;9.904;2024-03-07T00:31:04;23.40;;;17.27;;
13641;SDS011;6894;52.196;9.904;2024-03-07T00:33:33;22.83;;;16.47;;
13641;SDS011;6894;52.196;9.904;2024-03-07T00:36:00;22.07;;;16.27;;
13641;SDS011;6894;52.196;9.904;2024-03-07T00:38:27;17.87;;;14.60;;
13641;SDS011;6894;52.196;9.904;2024-03-07T00:40:55;18.80;;;15.60;;
13641;SDS011;6894;52.196;9.904;2024-03-07T00:43:22;17.43;;;14.00;;
13641;SDS011;6894;52.196;9.904;2024-03-07T00:45:50;17.17;;;14.07;;
13641;SDS011;6894;52.196;9.904;2024-03-07T00:48:17;15.90;;;14.20;;
13641;SDS011;6894;52.196;9.904;2024-03-07T00:50:43;16.73;;;13.90;;
13641;SDS011;6894;52.196;9.904;2024-03-07T00:53:10;16.87;;;13.97;;
13641;SDS011;6894;52.196;9.904;2024-03-07T00:55:37;17.97;;;13.60;;
13641;SDS011;6894;52.196;9.904;2024-03-07T00:58:05;19.13;;;14.67;;
13641;SDS011;6894;52.196;9.904;2024-03-07T01:00:32;16.97;;;13.03;;
13641;SDS011;6894;52.196;9.904;2024-03-07T01:02:58;18.70;;;14.03;;
13641;SDS011;6894;52.196;9.904;2024-03-07T01:05:26;17.20;;;14.10;;
13641;SDS011;6894;52.196;9.904;2024-03-07T01:07:53;20.43;;;14.53;;
13641;SDS011;6894;52.196;9.904;2024-03-07T01:10:20;19.77;;;14.73;;
13641;SDS011;6894;52.196;9.904;2024-03-07T01:12:47;20.83;;;16.13;;
13641;SDS011;6894;52.196;9.904;2024-03-07T01:15:16;19.97;;;14.80;;
13641;SDS011;6894;52.196;9.904;2024-03-07T01:17:43;15.57;;;13.17;;
13641;SDS011;6894;52.196;9.904;2024-03-07T01:20:10;19.93;;;13.77;;
13641;SDS011;6894;52.196;9.904;2024-03-07T01:22:37;17.97;;;13.63;;
13641;SDS011;6894;52.196;9.904;2024-03-07T01:25:05;18.43;;;13.33;;
13641;SDS011;6894;52.196;9.904;2024-03-07T01:27:32;16.87;;;13.30;;
13641;SDS011;6894;52.196;9.904;2024-03-07T01:29:59;19.03;;;13.90;;
13641;SDS011;6894;52.196;9.904;2024-03-07T01:32:28;18.77;;;13.83;;
13641;SDS011;6894;52.196;9.904;2024-03-07T01:34:55;19.30;;;13.43;;
13641;SDS011;6894;52.196;9.904;2024-03-07T01:37:22;19.53;;;14.00;;
13641;SDS011;6894;52.196;9.904;2024-03-07T01:39:48;18.53;;;12.80;;
13641;SDS011;6894;52.196;9.904;2024-03-07T01:42:15;15.10;;;13.50;;
13641;SDS011;6894;52.196;9.904;2024-03-07T01:44:42;16.03;;;12.70;;
13641;SDS011;6894;52.196;9.904;2024-03-07T01:47:09;17.00;;;13.17;;
13641;SDS011;6894;52.196;9.904;2024-03-07T01:49:38;16.77;;;14.47;;
13641;SDS011;6894;52.196;9.904;2024-03-07T01:52:05;22.37;;;15.07;;
13641;SDS011;6894;52.196;9.904;2024-03-07T01:54:32;18.43;;;13.80;;
13641;SDS011;6894;52.196;9.904;2024-03-07T01:57:01;16.37;;;13.30;;
13641;SDS011;6894;52.196;9.904;2024-03-07T01:59:28;15.90;;;12.83;;
13641;SDS011;6894;52.196;9.904;2024-03-07T02:01:57;15.53;;;13.47;;
13641;SDS011;6894;52.196;9.904;2024-03-07T02:04:27;16.50;;;12.50;;
13641;SDS011;6894;52.196;9.904;2024-03-07T02:06:55;15.87;;;13.53;;
13641;SDS011;6894;52.196;9.904;2024-03-07T02:09:23;17.33;;;13.30;;
13641;SDS011;6894;52.196;9.904;2024-03-07T02:11:50;17.30;;;14.03;;
13641;SDS011;6894;52.196;9.904;2024-03-07T02:14:17;14.00;;;12.30;;
13641;SDS011;6894;52.196;9.904;2024-03-07T02:16:44;16.43;;;13.23;;
13641;SDS011;6894;52.196;9.904;2024-03-07T02:19:11;17.10;;;13.37;;
13641;SDS011;6894;52.196;9.904;2024-03-07T02:21:42;16.30;;;13.03;;
13641;SDS011;6894;52.196;9.904;2024-03-07T02:24:09;51.20;;;31.97;;
13641;SDS011;6894;52.196;9.904;2024-03-07T02:26:36;25.13;;;18.93;;
13641;SDS011;6894;52.196;9.904;2024-03-07T02:29:04;28.73;;;20.00;;
13641;SDS011;6894;52.196;9.904;2024-03-07T02:31:31;39.13;;;25.13;;
13641;SDS011;6894;52.196;9.904;2024-03-07T02:34:01;18.87;;;15.23;;
13641;SDS011;6894;52.196;9.904;2024-03-07T02:36:28;24.30;;;19.60;;
13641;SDS011;6894;52.196;9.904;2024-03-07T02:38:57;15.83;;;13.57;;
13641;SDS011;6894;52.196;9.904;2024-03-07T02:41:24;20.10;;;13.27;;
13641;SDS011;6894;52.196;9.904;2024-03-07T02:43:51;17.20;;;13.30;;
13641;SDS011;6894;52.196;9.904;2024-03-07T02:46:18;16.70;;;13.20;;
13641;SDS011;6894;52.196;9.904;2024-03-07T02:48:45;19.50;;;13.17;;
13641;SDS011;6894;52.196;9.904;2024-03-07T02:51:12;15.90;;;13.20;;
13641;SDS011;6894;52.196;9.904;2024-03-07T02:53:39;13.80;;;12.27;;
13641;SDS011;6894;52.196;9.904;2024-03-07T02:56:07;14.00;;;11.43;;
13641;SDS011;6894;52.196;9.904;2024-03-07T02:58:34;15.00;;;13.37;;
13641;SDS011;6894;52.196;9.904;2024-03-07T03:01:01;15.87;;;12.37;;
13641;SDS011;6894;52.196;9.904;2024-03-07T03:03:29;15.97;;;12.67;;
13641;SDS011;6894;52.196;9.904;2024-03-07T03:05:57;13.13;;;11.47;;
13641;SDS011;6894;52.196;9.904;2024-03-07T03:08:24;14.83;;;12.53;;
13641;SDS011;6894;52.196;9.904;2024-03-07T03:10:53;15.60;;;12.53;;
13641;SDS011;6894;52.196;9.904;2024-03-07T03:13:23;16.63;;;13.30;;
13641;SDS011;6894;52.196;9.904;2024-03-07T03:15:49;15.17;;;11.67;;
13641;SDS011;6894;52.196;9.904;2024-03-07T03:18:16;14.83;;;11.70;;
13641;SDS011;6894;52.196;9.904;2024-03-07T03:20:44;16.97;;;13.93;;
13641;SDS011;6894;52.196;9.904;2024-03-07T03:23:13;19.87;;;14.63;;
13641;SDS011;6894;52.196;9.904;2024-03-07T03:25:40;14.93;;;12.17;;
13641;SDS011;6894;52.196;9.904;2024-03-07T03:28:07;15.13;;;12.50;;
13641;SDS011;6894;52.196;9.904;2024-03-07T03:30:37;17.83;;;12.63;;
13641;SDS011;6894;52.196;9.904;2024-03-07T03:33:04;16.93;;;12.80;;
13641;SDS011;6894;52.196;9.904;2024-03-07T03:35:31;14.17;;;12.67;;
13641;SDS011;6894;52.196;9.904;2024-03-07T03:37:58;16.27;;;12.63;;
13641;SDS011;6894;52.196;9.904;2024-03-07T03:40:26;16.80;;;12.93;;
13641;SDS011;6894;52.196;9.904;2024-03-07T03:42:53;16.17;;;13.07;;
13641;SDS011;6894;52.196;9.904;2024-03-07T03:45:19;14.10;;;12.10;;
13641;SDS011;6894;52.196;9.904;2024-03-07T03:47:48;15.33;;;13.23;;
13641;SDS011;6894;52.196;9.904;2024-03-07T03:50:14;21.47;;;15.83;;
13641;SDS011;6894;52.196;9.904;2024-03-07T03:52:42;20.37;;;14.83;;
13641;SDS011;6894;52.196;9.904;2024-03-07T03:55:10;20.50;;;16.27;;
13641;SDS011;6894;52.196;9.904;2024-03-07T03:57:38;19.93;;;15.53;;
13641;SDS011;6894;52.196;9.904;2024-03-07T04:00:06;19.67;;;14.53;;
13641;SDS011;6894;52.196;9.904;2024-03-07T04:02:38;19.90;;;15.63;;
13641;SDS011;6894;52.196;9.904;2024-03-07T04:05:07;18.60;;;15.27;;
13641;SDS011;6894;52.196;9.904;2024-03-07T04:07:35;20.27;;;15.10;;
13641;SDS011;6894;52.196;9.904;2024-03-07T04:10:02;18.70;;;16.07;;
13641;SDS011;6894;52.196;9.904;2024-03-07T04:12:32;22.30;;;16.03;;
13641;SDS011;6894;52.196;9.904;2024-03-07T04:14:59;18.10;;;14.47;;
13641;SDS011;6894;52.196;9.904;2024-03-07T04:17:26;19.07;;;14.23;;
13641;SDS011;6894;52.196;9.904;2024-03-07T04:19:53;17.30;;;14.97;;
13641;SDS011;6894;52.196;9.904;2024-03-07T04:22:21;18.47;;;14.93;;
13641;SDS011;6894;52.196;9.904;2024-03-07T04:24:48;18.27;;;14.47;;
13641;SDS011;6894;52.196;9.904;2024-03-07T04:27:18;21.70;;;15.57;;
13641;SDS011;6894;52.196;9.904;2024-03-07T04:29:46;18.03;;;15.17;;
13641;SDS011;6894;52.196;9.904;2024-03-07T04:32:14;18.33;;;13.97;;
13641;SDS011;6894;52.196;9.904;2024-03-07T04:34:42;16.27;;;13.93;;
13641;SDS011;6894;52.196;9.904;2024-03-07T04:37:09;18.80;;;13.43;;
13641;SDS011;6894;52.196;9.904;2024-03-07T04:39:37;21.13;;;15.83;;
13641;SDS011;6894;52.196;9.904;2024-03-07T04:42:05;23.70;;;17.03;;
13641;SDS011;6894;52.196;9.904;2024-03-07T04:44:33;33.03;;;22.07;;
13641;SDS011;6894;52.196;9.904;2024-03-07T04:47:01;42.13;;;31.23;;
13641;SDS011;6894;52.196;9.904;2024-03-07T04:49:29;19.17;;;16.07;;
13641;SDS011;6894;52.196;9.904;2024-03-07T04:51:57;18.23;;;15.27;;
13641;SDS011;6894;52.196;9.904;2024-03-07T04:54:25;19.40;;;14.80;;
13641;SDS011;6894;52.196;9.904;2024-03-07T04:56:54;19.03;;;15.40;;
13641;SDS011;6894;52.196;9.904;2024-03-07T04:59:21;18.27;;;14.20;;
13641;SDS011;6894;52.196;9.904;2024-03-07T05:01:48;18.37;;;14.50;;
13641;SDS011;6894;52.196;9.904;2024-03-07T05:04:16;17.70;;;13.37;;
13641;SDS011;6894;52.196;9.904;2024-03-07T05:06:44;18.47;;;14.33;;
13641;SDS011;6894;52.196;9.904;2024-03-07T05:09:13;20.13;;;16.47;;
13641;SDS011;6894;52.196;9.904;2024-03-07T05:11:48;30.50;;;18.90;;
13641;SDS011;6894;52.196;9.904;2024-03-07T05:14:18;20.67;;;15.50;;
13641;SDS011;6894;52.196;9.904;2024-03-07T05:19:42;21.20;;;16.73;;
13641;SDS011;6894;52.196;9.904;2024-03-07T05:22:31;21.27;;;17.37;;
13641;SDS011;6894;52.196;9.904;2024-03-07T05:25:23;20.90;;;15.90;;
13641;SDS011;6894;52.196;9.904;2024-03-07T05:28:01;22.13;;;14.37;;
13641;SDS011;6894;52.196;9.904;2024-03-07T05:30:33;20.43;;;16.40;;
13641;SDS011;6894;52.196;9.904;2024-03-07T05:33:00;18.73;;;14.77;;
13641;SDS011;6894;52.196;9.904;2024-03-07T05:35:27;19.80;;;15.33;;
13641;SDS011;6894;52.196;9.904;2024-03-07T05:37:54;28.77;;;23.47;;
13641;SDS011;6894;52.196;9.904;2024-03-07T05:40:21;24.60;;;19.03;;
13641;SDS011;6894;52.196;9.904;2024-03-07T05:42:48;33.93;;;20.43;;
13641;SDS011;6894;52.196;9.904;2024-03-07T05:45:15;30.67;;;21.00;;
13641;SDS011;6894;52.196;9.904;2024-03-07T05:47:44;37.43;;;24.30;;
13641;SDS011;6894;52.196;9.904;2024-03-07T05:50:12;33.00;;;22.33;;
13641;SDS011;6894;52.196;9.904;2024-03-07T05:52:39;30.33;;;21.03;;
13641;SDS011;6894;52.196;9.904;2024-03-07T05:55:06;44.40;;;22.93;;
13641;SDS011;6894;52.196;9.904;2024-03-07T05:57:33;27.43;;;18.93;;
13641;SDS011;6894;52.196;9.904;2024-03-07T06:00:00;26.17;;;18.10;;
13641;SDS011;6894;52.196;9.904;2024-03-07T06:02:27;22.90;;;18.23;;
13641;SDS011;6894;52.196;9.904;2024-03-07T06:04:55;32.30;;;19.10;;
13641;SDS011;6894;52.196;9.904;2024-03-07T06:07:21;27.57;;;19.23;;
13641;SDS011;6894;52.196;9.904;2024-03-07T06:09:48;27.63;;;20.10;;
13641;SDS011;6894;52.196;9.904;2024-03-07T06:12:15;29.50;;;22.87;;
13641;SDS011;6894;52.196;9.904;2024-03-07T06:14:42;22.37;;;16.13;;
13641;SDS011;6894;52.196;9.904;2024-03-07T06:17:09;22.80;;;17.60;;
13641;SDS011;6894;52.196;9.904;2024-03-07T06:19:36;27.43;;;19.83;;
13641;SDS011;6894;52.196;9.904;2024-03-07T06:22:04;26.40;;;18.23;;
13641;SDS011;6894;52.196;9.904;2024-03-07T06:24:33;26.33;;;19.87;;
13641;SDS011;6894;52.196;9.904;2024-03-07T06:27:00;26.93;;;20.83;;
13641;SDS011;6894;52.196;9.904;2024-03-07T06:29:28;27.60;;;19.10;;
13641;SDS011;6894;52.196;9.904;2024-03-07T06:31:55;23.47;;;17.77;;
13641;SDS011;6894;52.196;9.904;2024-03-07T06:34:22;21.73;;;16.80;;
13641;SDS011;6894;52.196;9.904;2024-03-07T06:36:49;27.07;;;17.57;;
13641;SDS011;6894;52.196;9.904;2024-03-07T06:39:17;29.27;;;17.03;;
13641;SDS011;6894;52.196;9.904;2024-03-07T06:41:47;30.23;;;17.07;;
13641;SDS011;6894;52.196;9.904;2024-03-07T06:44:13;23.93;;;16.50;;
13641;SDS011;6894;52.196;9.904;2024-03-07T06:46:40;29.80;;;18.63;;
13641;SDS011;6894;52.196;9.904;2024-03-07T06:49:07;31.00;;;17.80;;
13641;SDS011;6894;52.196;9.904;2024-03-07T06:51:35;25.57;;;17.50;;
13641;SDS011;6894;52.196;9.904;2024-03-07T06:54:02;35.00;;;19.03;;
13641;SDS011;6894;52.196;9.904;2024-03-07T06:56:31;29.63;;;18.10;;
13641;SDS011;6894;52.196;9.904;2024-03-07T06:58:58;27.83;;;20.10;;
13641;SDS011;6894;52.196;9.904;2024-03-07T07:01:29;28.90;;;19.77;;
13641;SDS011;6894;52.196;9.904;2024-03-07T07:03:56;33.83;;;21.03;;
13641;SDS011;6894;52.196;9.904;2024-03-07T07:06:23;29.10;;;18.60;;
13641;SDS011;6894;52.196;9.904;2024-03-07T07:08:51;28.87;;;18.73;;
13641;SDS011;6894;52.196;9.904;2024-03-07T07:11:17;32.77;;;19.53;;
13641;SDS011;6894;52.196;9.904;2024-03-07T07:13:45;25.90;;;18.60;;
13641;SDS011;6894;52.196;9.904;2024-03-07T07:16:12;27.07;;;18.13;;
13641;SDS011;6894;52.196;9.904;2024-03-07T07:18:39;25.90;;;18.70;;
13641;SDS011;6894;52.196;9.904;2024-03-07T07:21:06;28.73;;;20.10;;
13641;SDS011;6894;52.196;9.904;2024-03-07T07:23:35;27.10;;;19.07;;
13641;SDS011;6894;52.196;9.904;2024-03-07T07:26:02;31.60;;;19.63;;
13641;SDS011;6894;52.196;9.904;2024-03-07T07:28:30;29.83;;;20.30;;
13641;SDS011;6894;52.196;9.904;2024-03-07T07:30:59;24.13;;;17.93;;
13641;SDS011;6894;52.196;9.904;2024-03-07T07:33:26;30.77;;;20.03;;
13641;SDS011;6894;52.196;9.904;2024-03-07T07:35:53;29.43;;;18.60;;
13641;SDS011;6894;52.196;9.904;2024-03-07T07:38:19;29.40;;;20.03;;
13641;SDS011;6894;52.196;9.904;2024-03-07T07:40:46;29.93;;;19.27;;
13641;SDS011;6894;52.196;9.904;2024-03-07T07:43:14;31.97;;;19.77;;
13641;SDS011;6894;52.196;9.904;2024-03-07T07:45:41;30.23;;;20.03;;
13641;SDS011;6894;52.196;9.904;2024-03-07T07:48:09;77.40;;;33.90;;
13641;SDS011;6894;52.196;9.904;2024-03-07T07:50:36;57.60;;;27.30;;
13641;SDS011;6894;52.196;9.904;2024-03-07T07:53:03;42.23;;;24.67;;
13641;SDS011;6894;52.196;9.904;2024-03-07T07:55:34;61.33;;;32.67;;
13641;SDS011;6894;52.196;9.904;2024-03-07T07:58:00;45.77;;;26.43;;
13641;SDS011;6894;52.196;9.904;2024-03-07T08:00:29;44.27;;;25.20;;
13641;SDS011;6894;52.196;9.904;2024-03-07T08:02:56;47.67;;;25.77;;
13641;SDS011;6894;52.196;9.904;2024-03-07T08:05:26;37.37;;;23.13;;
13641;SDS011;6894;52.196;9.904;2024-03-07T08:07:54;41.70;;;22.60;;
13641;SDS011;6894;52.196;9.904;2024-03-07T08:10:23;37.80;;;22.33;;
13641;SDS011;6894;52.196;9.904;2024-03-07T08:12:50;38.00;;;21.23;;
13641;SDS011;6894;52.196;9.904;2024-03-07T08:15:18;38.27;;;22.73;;
13641;SDS011;6894;52.196;9.904;2024-03-07T08:17:46;44.03;;;22.33;;
13641;SDS011;6894;52.196;9.904;2024-03-07T08:20:16;42.20;;;20.93;;
13641;SDS011;6894;52.196;9.904;2024-03-07T08:22:47;41.30;;;22.23;;
13641;SDS011;6894;52.196;9.904;2024-03-07T08:25:16;37.00;;;21.97;;
13641;SDS011;6894;52.196;9.904;2024-03-07T08:27:44;38.53;;;21.30;;
13641;SDS011;6894;52.196;9.904;2024-03-07T08:30:12;52.70;;;21.50;;
13641;SDS011;6894;52.196;9.904;2024-03-07T08:32:40;37.80;;;22.10;;
13641;SDS011;6894;52.196;9.904;2024-03-07T08:35:07;32.37;;;21.00;;
13641;SDS011;6894;52.196;9.904;2024-03-07T08:37:35;41.90;;;23.07;;
13641;SDS011;6894;52.196;9.904;2024-03-07T08:40:04;35.53;;;20.93;;
13641;SDS011;6894;52.196;9.904;2024-03-07T08:42:34;36.80;;;22.37;;
13641;SDS011;6894;52.196;9.904;2024-03-07T08:45:03;50.00;;;22.70;;
13641;SDS011;6894;52.196;9.904;2024-03-07T08:47:30;51.23;;;23.27;;
13641;SDS011;6894;52.196;9.904;2024-03-07T08:49:58;42.73;;;22.53;;
13641;SDS011;6894;52.196;9.904;2024-03-07T08:52:24;46.17;;;23.07;;
13641;SDS011;6894;52.196;9.904;2024-03-07T08:54:53;36.93;;;22.93;;
13641;SDS011;6894;52.196;9.904;2024-03-07T08:57:21;37.60;;;24.80;;
13641;SDS011;6894;52.196;9.904;2024-03-07T08:59:48;44.10;;;29.73;;
13641;SDS011;6894;52.196;9.904;2024-03-07T09:02:15;44.27;;;23.23;;
13641;SDS011;6894;52.196;9.904;2024-03-07T09:04:42;39.63;;;23.57;;
13641;SDS011;6894;52.196;9.904;2024-03-07T09:07:09;38.43;;;22.10;;
13641;SDS011;6894;52.196;9.904;2024-03-07T09:09:36;41.43;;;23.17;;
13641;SDS011;6894;52.196;9.904;2024-03-07T09:12:03;40.37;;;22.03;;
13641;SDS011;6894;52.196;9.904;2024-03-07T09:14:31;42.10;;;24.60;;
13641;SDS011;6894;52.196;9.904;2024-03-07T09:16:58;44.33;;;23.37;;
13641;SDS011;6894;52.196;9.904;2024-03-07T09:19:25;48.20;;;24.13;;
13641;SDS011;6894;52.196;9.904;2024-03-07T09:21:52;42.13;;;23.03;;
13641;SDS011;6894;52.196;9.904;2024-03-07T09:24:19;41.33;;;23.60;;
13641;SDS011;6894;52.196;9.904;2024-03-07T09:26:47;34.80;;;21.07;;
13641;SDS011;6894;52.196;9.904;2024-03-07T09:29:14;41.33;;;22.70;;
13641;SDS011;6894;52.196;9.904;2024-03-07T09:31:44;36.63;;;22.50;;
13641;SDS011;6894;52.196;9.904;2024-03-07T09:34:11;40.43;;;24.10;;
13641;SDS011;6894;52.196;9.904;2024-03-07T09:36:39;39.03;;;22.50;;
13641;SDS011;6894;52.196;9.904;2024-03-07T09:39:06;48.00;;;23.17;;
13641;SDS011;6894;52.196;9.904;2024-03-07T09:41:34;42.03;;;22.57;;
13641;SDS011;6894;52.196;9.904;2024-03-07T09:44:01;48.70;;;23.90;;
13641;SDS011;6894;52.196;9.904;2024-03-07T09:46:28;50.67;;;23.47;;
13641;SDS011;6894;52.196;9.904;2024-03-07T09:48:57;54.33;;;24.40;;
13641;SDS011;6894;52.196;9.904;2024-03-07T09:51:24;47.73;;;24.27;;
13641;SDS011;6894;52.196;9.904;2024-03-07T09:53:52;59.23;;;25.23;;
13641;SDS011;6894;52.196;9.904;2024-03-07T09:56:23;52.67;;;23.93;;
13641;SDS011;6894;52.196;9.904;2024-03-07T09:58:52;64.97;;;26.13;;
13641;SDS011;6894;52.196;9.904;2024-03-07T10:01:21;56.87;;;25.57;;
13641;SDS011;6894;52.196;9.904;2024-03-07T10:03:52;60.03;;;26.70;;
13641;SDS011;6894;52.196;9.904;2024-03-07T10:06:27;54.23;;;24.60;;
13641;SDS011;6894;52.196;9.904;2024-03-07T10:08:55;51.47;;;24.67;;
13641;SDS011;6894;52.196;9.904;2024-03-07T10:11:23;44.87;;;22.40;;
13641;SDS011;6894;52.196;9.904;2024-03-07T10:13:52;52.73;;;24.07;;
13641;SDS011;6894;52.196;9.904;2024-03-07T10:16:20;50.47;;;23.13;;
13641;SDS011;6894;52.196;9.904;2024-03-07T10:18:48;52.60;;;22.90;;
13641;SDS011;6894;52.196;9.904;2024-03-07T10:21:15;51.90;;;23.40;;
13641;SDS011;6894;52.196;9.904;2024-03-07T10:23:46;50.53;;;23.30;;
13641;SDS011;6894;52.196;9.904;2024-03-07T10:26:14;52.87;;;24.13;;
13641;SDS011;6894;52.196;9.904;2024-03-07T10:28:42;43.67;;;23.00;;
13641;SDS011;6894;52.196;9.904;2024-03-07T10:31:09;44.37;;;22.73;;
13641;SDS011;6894;52.196;9.904;2024-03-07T10:33:40;44.10;;;23.70;;
13641;SDS011;6894;52.196;9.904;2024-03-07T10:36:09;46.73;;;22.17;;
13641;SDS011;6894;52.196;9.904;2024-03-07T10:38:38;44.13;;;23.07;;
13641;SDS011;6894;52.196;9.904;2024-03-07T10:41:07;51.90;;;23.97;;
13641;SDS011;6894;52.196;9.904;2024-03-07T10:43:36;50.80;;;23.43;;
13641;SDS011;6894;52.196;9.904;2024-03-07T10:46:07;47.53;;;22.03;;
13641;SDS011;6894;52.196;9.904;2024-03-07T10:48:37;45.27;;;20.93;;
13641;SDS011;6894;52.196;9.904;2024-03-07T10:51:06;39.63;;;21.93;;
13641;SDS011;6894;52.196;9.904;2024-03-07T10:53:46;43.77;;;21.67;;
13641;SDS011;6894;52.196;9.904;2024-03-07T10:56:26;40.37;;;22.23;;
13641;SDS011;6894;52.196;9.904;2024-03-07T10:59:02;43.13;;;21.67;;
13641;SDS011;6894;52.196;9.904;2024-03-07T11:01:39;44.40;;;21.50;;
13641;SDS011;6894;52.196;9.904;2024-03-07T11:04:14;45.10;;;22.73;;
13641;SDS011;6894;52.196;9.904;2024-03-07T11:06:42;43.43;;;21.77;;
13641;SDS011;6894;52.196;9.904;2024-03-07T11:09:10;44.00;;;22.33;;
13641;SDS011;6894;52.196;9.904;2024-03-07T11:11:39;46.33;;;23.20;;
13641;SDS011;6894;52.196;9.904;2024-03-07T11:14:08;52.83;;;23.83;;
13641;SDS011;6894;52.196;9.904;2024-03-07T11:16:37;47.50;;;23.27;;
13641;SDS011;6894;52.196;9.904;2024-03-07T11:19:17;47.67;;;23.00;;
13641;SDS011;6894;52.196;9.904;2024-03-07T11:21:46;45.13;;;23.57;;
13641;SDS011;6894;52.196;9.904;2024-03-07T11:24:22;47.43;;;23.60;;
13641;SDS011;6894;52.196;9.904;2024-03-07T11:26:52;45.83;;;22.93;;
13641;SDS011;6894;52.196;9.904;2024-03-07T11:32:11;43.87;;;22.80;;
13641;SDS011;6894;52.196;9.904;2024-03-07T11:34:39;41.47;;;22.67;;
13641;SDS011;6894;52.196;9.904;2024-03-07T11:37:16;41.47;;;21.77;;
13641;SDS011;6894;52.196;9.904;2024-03-07T11:39:47;48.20;;;21.70;;
13641;SDS011;6894;52.196;9.904;2024-03-07T11:42:21;38.33;;;21.80;;
13641;SDS011;6894;52.196;9.904;2024-03-07T11:44:50;39.83;;;21.47;;
13641;SDS011;6894;52.196;9.904;2024-03-07T11:47:17;43.37;;;22.73;;
13641;SDS011;6894;52.196;9.904;2024-03-07T11:49:44;34.33;;;21.30;;
13641;SDS011;6894;52.196;9.904;2024-03-07T11:52:14;37.90;;;21.13;;
13641;SDS011;6894;52.196;9.904;2024-03-07T11:54:42;41.00;;;21.77;;
13641;SDS011;6894;52.196;9.904;2024-03-07T11:57:12;36.63;;;21.77;;
13641;SDS011;6894;52.196;9.904;2024-03-07T11:59:42;35.83;;;20.90;;
13641;SDS011;6894;52.196;9.904;2024-03-07T12:02:11;38.40;;;20.70;;
13641;SDS011;6894;52.196;9.904;2024-03-07T12:04:40;32.80;;;19.90;;
13641;SDS011;6894;52.196;9.904;2024-03-07T12:07:07;37.80;;;20.43;;
13641;SDS011;6894;52.196;9.904;2024-03-07T12:09:35;37.67;;;22.67;;
13641;SDS011;6894;52.196;9.904;2024-03-07T12:12:03;37.17;;;20.63;;
13641;SDS011;6894;52.196;9.904;2024-03-07T12:14:31;36.70;;;19.90;;
13641;SDS011;6894;52.196;9.904;2024-03-07T12:17:00;34.67;;;21.13;;
13641;SDS011;6894;52.196;9.904;2024-03-07T12:19:29;35.70;;;19.33;;
13641;SDS011;6894;52.196;9.904;2024-03-07T12:21:59;33.87;;;20.93;;
13641;SDS011;6894;52.196;9.904;2024-03-07T12:24:27;30.13;;;19.33;;
13641;SDS011;6894;52.196;9.904;2024-03-07T12:27:04;30.33;;;18.37;;
13641;SDS011;6894;52.196;9.904;2024-03-07T12:29:32;30.97;;;17.57;;
13641;SDS011;6894;52.196;9.904;2024-03-07T12:32:00;27.90;;;16.70;;
13641;SDS011;6894;52.196;9.904;2024-03-07T12:34:27;29.97;;;16.83;;
13641;SDS011;6894;52.196;9.904;2024-03-07T12:36:56;29.90;;;17.43;;
13641;SDS011;6894;52.196;9.904;2024-03-07T12:39:23;37.77;;;18.17;;
13641;SDS011;6894;52.196;9.904;2024-03-07T12:41:51;29.50;;;17.77;;
13641;SDS011;6894;52.196;9.904;2024-03-07T12:44:19;26.27;;;17.30;;
13641;SDS011;6894;52.196;9.904;2024-03-07T12:46:47;29.57;;;18.60;;
13641;SDS011;6894;52.196;9.904;2024-03-07T12:49:15;23.50;;;16.43;;
13641;SDS011;6894;52.196;9.904;2024-03-07T12:51:42;25.73;;;16.20;;
13641;SDS011;6894;52.196;9.904;2024-03-07T12:54:09;29.63;;;18.77;;
13641;SDS011;6894;52.196;9.904;2024-03-07T12:56:36;28.80;;;17.63;;
13641;SDS011;6894;52.196;9.904;2024-03-07T12:59:04;23.63;;;15.97;;
13641;SDS011;6894;52.196;9.904;2024-03-07T13:01:34;16.57;;;12.97;;
13641;SDS011;6894;52.196;9.904;2024-03-07T13:04:03;27.33;;;16.97;;
13641;SDS011;6894;52.196;9.904;2024-03-07T13:06:34;28.70;;;18.03;;
13641;SDS011;6894;52.196;9.904;2024-03-07T13:09:01;36.83;;;20.03;;
13641;SDS011;6894;52.196;9.904;2024-03-07T13:11:28;26.47;;;17.70;;
13641;SDS011;6894;52.196;9.904;2024-03-07T13:13:57;25.30;;;17.37;;
13641;SDS011;6894;52.196;9.904;2024-03-07T13:16:24;28.93;;;18.13;;
13641;SDS011;6894;52.196;9.904;2024-03-07T13:18:52;30.07;;;17.07;;
13641;SDS011;6894;52.196;9.904;2024-03-07T13:21:20;29.23;;;19.27;;
13641;SDS011;6894;52.196;9.904;2024-03-07T13:23:49;27.57;;;17.53;;
13641;SDS011;6894;52.196;9.904;2024-03-07T13:26:17;26.43;;;17.27;;
13641;SDS011;6894;52.196;9.904;2024-03-07T13:28:49;25.33;;;16.40;;
13641;SDS011;6894;52.196;9.904;2024-03-07T13:31:17;24.93;;;18.47;;
13641;SDS011;6894;52.196;9.904;2024-03-07T13:33:44;27.60;;;17.13;;
13641;SDS011;6894;52.196;9.904;2024-03-07T13:36:14;22.80;;;16.17;;
13641;SDS011;6894;52.196;9.904;2024-03-07T13:38:49;27.37;;;17.13;;
13641;SDS011;6894;52.196;9.904;2024-03-07T13:41:17;24.87;;;16.60;;
13641;SDS011;6894;52.196;9.904;2024-03-07T13:43:44;24.17;;;16.37;;
13641;SDS011;6894;52.196;9.904;2024-03-07T13:46:12;23.23;;;16.30;;
13641;SDS011;6894;52.196;9.904;2024-03-07T13:48:39;27.47;;;16.90;;
13641;SDS011;6894;52.196;9.904;2024-03-07T13:51:07;24.60;;;15.67;;
13641;SDS011;6894;52.196;9.904;2024-03-07T13:53:34;19.87;;;15.73;;
13641;SDS011;6894;52.196;9.904;2024-03-07T14:02:00;20.33;;;14.13;;
13641;SDS011;6894;52.196;9.904;2024-03-07T14:07:47;19.90;;;14.77;;
13641;SDS011;6894;52.196;9.904;2024-03-07T14:10:31;21.03;;;14.07;;
13641;SDS011;6894;52.196;9.904;2024-03-07T14:13:24;20.33;;;13.73;;
13641;SDS011;6894;52.196;9.904;2024-03-07T14:16:20;20.83;;;14.80;;
13641;SDS011;6894;52.196;9.904;2024-03-07T14:19:09;18.00;;;13.93;;
13641;SDS011;6894;52.196;9.904;2024-03-07T14:21:53;20.47;;;14.33;;
13641;SDS011;6894;52.196;9.904;2024-03-07T14:27:50;19.77;;;13.50;;
13641;SDS011;6894;52.196;9.904;2024-03-07T14:30:36;21.03;;;13.97;;
13641;SDS011;6894;52.196;9.904;2024-03-07T14:33:08;18.77;;;13.73;;
13641;SDS011;6894;52.196;9.904;2024-03-07T14:35:57;16.57;;;13.10;;
13641;SDS011;6894;52.196;9.904;2024-03-07T14:38:30;17.90;;;14.03;;
13641;SDS011;6894;52.196;9.904;2024-03-07T14:41:10;20.03;;;14.27;;
13641;SDS011;6894;52.196;9.904;2024-03-07T14:43:40;21.37;;;14.40;;
13641;SDS011;6894;52.196;9.904;2024-03-07T14:46:09;23.47;;;14.87;;
13641;SDS011;6894;52.196;9.904;2024-03-07T14:48:38;19.57;;;14.23;;
13641;SDS011;6894;52.196;9.904;2024-03-07T14:51:06;18.77;;;14.63;;
13641;SDS011;6894;52.196;9.904;2024-03-07T14:53:34;17.03;;;14.70;;
13641;SDS011;6894;52.196;9.904;2024-03-07T14:56:02;19.80;;;15.67;;
13641;SDS011;6894;52.196;9.904;2024-03-07T14:58:30;22.57;;;15.43;;
13641;SDS011;6894;52.196;9.904;2024-03-07T15:00:57;21.00;;;14.97;;